sensor_id;sensor_type;location;lat;lon;timestamp;P1;durP1;ratioP1;P2;durP2;ratioP2
72791;SDS011;60907;53.268;8.764;2023-08-21T00:01:55;3.25;;;1.60;;
72791;SDS011;60907;53.268;8.764;2023-08-21T00:04:20;6.35;;;2.05;;
72791;SDS011;60907;53.268;8.764;2023-08-21T00:06:46;2.47;;;1.30;;
72791;SDS011;60907;53.268;8.764;2023-08-21T00:09:11;2.58;;;1.30;;
72791;SDS011;60907;53.268;8.764;2023-08-21T00:11:36;4.67;;;1.20;;
72791;SDS011;60907;53.268;8.764;2023-08-21T00:14:02;5.43;;;1.48;;
72791;SDS011;60907;53.268;8.764;2023-08-21T00:16:27;6.75;;;1.70;;
72791;SDS011;60907;53.268;8.764;2023-08-21T00:18:53;4.70;;;2.80;;
72791;SDS011;60907;53.268;8.764;2023-08-21T00:21:19;4.40;;;2.17;;
72791;SDS011;60907;53.268;8.764;2023-08-21T00:23:45;3.97;;;1.42;;
72791;SDS011;60907;53.268;8.764;2023-08-21T00:26:11;4.35;;;1.13;;
72791;SDS011;60907;53.268;8.764;2023-08-21T00:28:37;2.75;;;1.73;;
72791;SDS011;60907;53.268;8.764;2023-08-21T00:31:03;2.88;;;1.42;;
72791;SDS011;60907;53.268;8.764;2023-08-21T00:33:32;4.63;;;1.38;;
72791;SDS011;60907;53.268;8.764;2023-08-21T00:35:58;5.25;;;1.45;;
72791;SDS011;60907;53.268;8.764;2023-08-21T00:38:24;3.45;;;1.42;;
72791;SDS011;60907;53.268;8.764;2023-08-21T00:40:50;5.28;;;1.27;;
72791;SDS011;60907;53.268;8.764;2023-08-21T00:43:16;2.88;;;1.40;;
72791;SDS011;60907;53.268;8.764;2023-08-21T00:45:42;2.47;;;1.15;;
72791;SDS011;60907;53.268;8.764;2023-08-21T00:48:10;4.68;;;1.38;;
72791;SDS011;60907;53.268;8.764;2023-08-21T00:50:36;2.35;;;1.60;;
72791;SDS011;60907;53.268;8.764;2023-08-21T00:53:02;4.25;;;1.90;;
72791;SDS011;60907;53.268;8.764;2023-08-21T00:55:31;5.68;;;1.60;;
72791;SDS011;60907;53.268;8.764;2023-08-21T00:57:57;4.00;;;1.50;;
72791;SDS011;60907;53.268;8.764;2023-08-21T01:00:23;4.75;;;2.15;;
72791;SDS011;60907;53.268;8.764;2023-08-21T01:02:49;3.20;;;1.38;;
72791;SDS011;60907;53.268;8.764;2023-08-21T01:05:14;4.00;;;1.40;;
72791;SDS011;60907;53.268;8.764;2023-08-21T01:07:50;4.68;;;1.60;;
72791;SDS011;60907;53.268;8.764;2023-08-21T01:13:11;4.35;;;2.38;;
72791;SDS011;60907;53.268;8.764;2023-08-21T01:15:47;4.80;;;1.52;;
72791;SDS011;60907;53.268;8.764;2023-08-21T01:18:15;3.90;;;1.60;;
72791;SDS011;60907;53.268;8.764;2023-08-21T01:20:41;3.60;;;1.48;;
72791;SDS011;60907;53.268;8.764;2023-08-21T01:23:07;3.25;;;1.77;;
72791;SDS011;60907;53.268;8.764;2023-08-21T01:25:33;5.70;;;1.70;;
72791;SDS011;60907;53.268;8.764;2023-08-21T01:27:58;4.65;;;1.70;;
72791;SDS011;60907;53.268;8.764;2023-08-21T01:30:24;3.78;;;1.65;;
72791;SDS011;60907;53.268;8.764;2023-08-21T01:33:05;4.38;;;1.98;;
72791;SDS011;60907;53.268;8.764;2023-08-21T01:35:33;3.47;;;1.80;;
72791;SDS011;60907;53.268;8.764;2023-08-21T01:37:59;6.43;;;1.92;;
72791;SDS011;60907;53.268;8.764;2023-08-21T01:40:25;3.95;;;1.75;;
72791;SDS011;60907;53.268;8.764;2023-08-21T01:42:54;3.80;;;1.83;;
72791;SDS011;60907;53.268;8.764;2023-08-21T01:45:20;4.45;;;1.42;;
72791;SDS011;60907;53.268;8.764;2023-08-21T01:47:46;2.47;;;1.38;;
72791;SDS011;60907;53.268;8.764;2023-08-21T01:50:11;6.23;;;1.67;;
72791;SDS011;60907;53.268;8.764;2023-08-21T01:52:36;6.10;;;2.40;;
72791;SDS011;60907;53.268;8.764;2023-08-21T01:55:02;4.45;;;1.77;;
72791;SDS011;60907;53.268;8.764;2023-08-21T01:57:28;6.95;;;2.28;;
72791;SDS011;60907;53.268;8.764;2023-08-21T01:59:54;3.75;;;1.70;;
72791;SDS011;60907;53.268;8.764;2023-08-21T02:02:19;3.85;;;1.83;;
72791;SDS011;60907;53.268;8.764;2023-08-21T02:04:45;3.00;;;1.50;;
72791;SDS011;60907;53.268;8.764;2023-08-21T02:07:10;4.60;;;1.80;;
72791;SDS011;60907;53.268;8.764;2023-08-21T02:09:35;5.53;;;2.23;;
72791;SDS011;60907;53.268;8.764;2023-08-21T02:12:01;5.40;;;2.30;;
72791;SDS011;60907;53.268;8.764;2023-08-21T02:14:26;4.03;;;1.92;;
72791;SDS011;60907;53.268;8.764;2023-08-21T02:16:52;3.10;;;2.10;;
72791;SDS011;60907;53.268;8.764;2023-08-21T02:19:17;3.97;;;1.80;;
72791;SDS011;60907;53.268;8.764;2023-08-21T02:21:42;4.97;;;2.00;;
72791;SDS011;60907;53.268;8.764;2023-08-21T02:24:08;4.63;;;2.08;;
72791;SDS011;60907;53.268;8.764;2023-08-21T02:26:33;8.35;;;2.35;;
72791;SDS011;60907;53.268;8.764;2023-08-21T02:28:59;5.50;;;2.30;;
72791;SDS011;60907;53.268;8.764;2023-08-21T02:31:24;6.65;;;2.13;;
72791;SDS011;60907;53.268;8.764;2023-08-21T02:33:50;6.07;;;2.42;;
72791;SDS011;60907;53.268;8.764;2023-08-21T02:36:15;6.25;;;2.42;;
72791;SDS011;60907;53.268;8.764;2023-08-21T02:38:41;5.07;;;2.20;;
72791;SDS011;60907;53.268;8.764;2023-08-21T02:41:06;5.97;;;2.37;;
72791;SDS011;60907;53.268;8.764;2023-08-21T02:43:32;4.30;;;2.40;;
72791;SDS011;60907;53.268;8.764;2023-08-21T02:45:58;4.22;;;2.40;;
72791;SDS011;60907;53.268;8.764;2023-08-21T02:48:23;2.73;;;2.00;;
72791;SDS011;60907;53.268;8.764;2023-08-21T02:50:49;7.03;;;2.63;;
72791;SDS011;60907;53.268;8.764;2023-08-21T02:53:14;6.68;;;2.95;;
72791;SDS011;60907;53.268;8.764;2023-08-21T02:55:39;7.33;;;2.77;;
72791;SDS011;60907;53.268;8.764;2023-08-21T02:58:05;4.53;;;2.80;;
72791;SDS011;60907;53.268;8.764;2023-08-21T03:00:30;5.65;;;2.25;;
72791;SDS011;60907;53.268;8.764;2023-08-21T03:02:56;5.30;;;1.92;;
72791;SDS011;60907;53.268;8.764;2023-08-21T03:05:21;7.28;;;3.38;;
72791;SDS011;60907;53.268;8.764;2023-08-21T03:07:47;4.90;;;2.35;;
72791;SDS011;60907;53.268;8.764;2023-08-21T03:10:12;5.72;;;2.83;;
72791;SDS011;60907;53.268;8.764;2023-08-21T03:12:38;7.38;;;2.90;;
72791;SDS011;60907;53.268;8.764;2023-08-21T03:15:03;5.25;;;2.17;;
72791;SDS011;60907;53.268;8.764;2023-08-21T03:17:29;5.03;;;2.30;;
72791;SDS011;60907;53.268;8.764;2023-08-21T03:19:55;4.90;;;2.40;;
72791;SDS011;60907;53.268;8.764;2023-08-21T03:22:20;4.57;;;2.50;;
72791;SDS011;60907;53.268;8.764;2023-08-21T03:24:46;4.78;;;2.50;;
72791;SDS011;60907;53.268;8.764;2023-08-21T03:27:11;5.53;;;2.87;;
72791;SDS011;60907;53.268;8.764;2023-08-21T03:29:39;5.90;;;2.33;;
72791;SDS011;60907;53.268;8.764;2023-08-21T03:32:04;7.28;;;2.75;;
72791;SDS011;60907;53.268;8.764;2023-08-21T03:34:30;5.63;;;2.30;;
72791;SDS011;60907;53.268;8.764;2023-08-21T03:36:55;4.38;;;2.13;;
72791;SDS011;60907;53.268;8.764;2023-08-21T03:39:21;5.43;;;2.40;;
72791;SDS011;60907;53.268;8.764;2023-08-21T03:41:46;7.57;;;3.40;;
72791;SDS011;60907;53.268;8.764;2023-08-21T03:44:11;4.95;;;2.92;;
72791;SDS011;60907;53.268;8.764;2023-08-21T03:46:37;12.90;;;3.83;;
72791;SDS011;60907;53.268;8.764;2023-08-21T03:49:02;4.87;;;2.97;;
72791;SDS011;60907;53.268;8.764;2023-08-21T03:51:27;6.75;;;3.47;;
72791;SDS011;60907;53.268;8.764;2023-08-21T03:53:53;6.53;;;2.33;;
72791;SDS011;60907;53.268;8.764;2023-08-21T03:56:19;8.43;;;2.57;;
72791;SDS011;60907;53.268;8.764;2023-08-21T03:58:44;4.28;;;2.33;;
72791;SDS011;60907;53.268;8.764;2023-08-21T04:01:09;5.25;;;2.30;;
72791;SDS011;60907;53.268;8.764;2023-08-21T04:03:35;6.03;;;3.13;;
72791;SDS011;60907;53.268;8.764;2023-08-21T04:06:01;5.80;;;2.70;;
72791;SDS011;60907;53.268;8.764;2023-08-21T04:08:26;7.70;;;3.40;;
72791;SDS011;60907;53.268;8.764;2023-08-21T04:10:52;7.88;;;3.72;;
72791;SDS011;60907;53.268;8.764;2023-08-21T04:13:25;9.25;;;3.40;;
72791;SDS011;60907;53.268;8.764;2023-08-21T04:15:52;8.15;;;3.75;;
72791;SDS011;60907;53.268;8.764;2023-08-21T04:18:18;7.53;;;3.67;;
72791;SDS011;60907;53.268;8.764;2023-08-21T04:20:44;7.20;;;3.92;;
72791;SDS011;60907;53.268;8.764;2023-08-21T04:23:09;8.02;;;4.40;;
72791;SDS011;60907;53.268;8.764;2023-08-21T04:25:35;9.18;;;4.57;;
72791;SDS011;60907;53.268;8.764;2023-08-21T04:28:00;7.75;;;4.47;;
72791;SDS011;60907;53.268;8.764;2023-08-21T04:30:26;8.50;;;4.10;;
72791;SDS011;60907;53.268;8.764;2023-08-21T04:32:51;8.10;;;4.05;;
72791;SDS011;60907;53.268;8.764;2023-08-21T04:35:16;9.20;;;4.35;;
72791;SDS011;60907;53.268;8.764;2023-08-21T04:37:43;6.97;;;4.03;;
72791;SDS011;60907;53.268;8.764;2023-08-21T04:40:11;7.68;;;3.72;;
72791;SDS011;60907;53.268;8.764;2023-08-21T04:42:36;9.77;;;4.65;;
72791;SDS011;60907;53.268;8.764;2023-08-21T04:45:02;7.20;;;3.83;;
72791;SDS011;60907;53.268;8.764;2023-08-21T04:47:28;6.60;;;3.63;;
72791;SDS011;60907;53.268;8.764;2023-08-21T04:49:53;7.10;;;3.38;;
72791;SDS011;60907;53.268;8.764;2023-08-21T04:52:20;7.13;;;3.10;;
72791;SDS011;60907;53.268;8.764;2023-08-21T04:54:48;7.40;;;3.10;;
72791;SDS011;60907;53.268;8.764;2023-08-21T04:57:14;5.15;;;3.30;;
72791;SDS011;60907;53.268;8.764;2023-08-21T04:59:40;5.15;;;3.05;;
72791;SDS011;60907;53.268;8.764;2023-08-21T05:02:06;6.28;;;3.05;;
72791;SDS011;60907;53.268;8.764;2023-08-21T05:04:32;4.70;;;3.05;;
72791;SDS011;60907;53.268;8.764;2023-08-21T05:06:58;7.57;;;3.53;;
72791;SDS011;60907;53.268;8.764;2023-08-21T05:09:23;5.78;;;2.95;;
72791;SDS011;60907;53.268;8.764;2023-08-21T05:11:48;5.30;;;2.67;;
72791;SDS011;60907;53.268;8.764;2023-08-21T05:14:14;4.73;;;2.80;;
72791;SDS011;60907;53.268;8.764;2023-08-21T05:16:39;5.75;;;2.55;;
72791;SDS011;60907;53.268;8.764;2023-08-21T05:19:05;4.30;;;2.35;;
72791;SDS011;60907;53.268;8.764;2023-08-21T05:21:30;6.30;;;2.70;;
72791;SDS011;60907;53.268;8.764;2023-08-21T05:23:56;4.53;;;2.20;;
72791;SDS011;60907;53.268;8.764;2023-08-21T05:26:21;5.00;;;2.63;;
72791;SDS011;60907;53.268;8.764;2023-08-21T05:28:46;5.97;;;2.45;;
72791;SDS011;60907;53.268;8.764;2023-08-21T05:31:12;4.25;;;1.90;;
72791;SDS011;60907;53.268;8.764;2023-08-21T05:33:37;9.43;;;2.97;;
72791;SDS011;60907;53.268;8.764;2023-08-21T05:36:04;3.65;;;2.40;;
72791;SDS011;60907;53.268;8.764;2023-08-21T05:38:29;5.95;;;2.58;;
72791;SDS011;60907;53.268;8.764;2023-08-21T05:40:55;5.82;;;2.58;;
72791;SDS011;60907;53.268;8.764;2023-08-21T05:43:21;5.18;;;3.05;;
72791;SDS011;60907;53.268;8.764;2023-08-21T05:45:46;4.32;;;2.50;;
72791;SDS011;60907;53.268;8.764;2023-08-21T05:48:12;5.63;;;2.72;;
72791;SDS011;60907;53.268;8.764;2023-08-21T05:50:38;6.78;;;3.15;;
72791;SDS011;60907;53.268;8.764;2023-08-21T05:53:04;7.70;;;2.63;;
72791;SDS011;60907;53.268;8.764;2023-08-21T05:55:29;3.65;;;2.92;;
72791;SDS011;60907;53.268;8.764;2023-08-21T05:57:55;5.32;;;2.58;;
72791;SDS011;60907;53.268;8.764;2023-08-21T06:00:20;5.90;;;3.17;;
72791;SDS011;60907;53.268;8.764;2023-08-21T06:02:46;6.60;;;2.80;;
72791;SDS011;60907;53.268;8.764;2023-08-21T06:05:11;7.47;;;3.55;;
72791;SDS011;60907;53.268;8.764;2023-08-21T06:07:37;8.38;;;3.90;;
72791;SDS011;60907;53.268;8.764;2023-08-21T06:10:02;8.75;;;3.38;;
72791;SDS011;60907;53.268;8.764;2023-08-21T06:12:29;7.85;;;4.10;;
72791;SDS011;60907;53.268;8.764;2023-08-21T06:14:55;10.07;;;4.45;;
72791;SDS011;60907;53.268;8.764;2023-08-21T06:17:20;10.35;;;4.50;;
72791;SDS011;60907;53.268;8.764;2023-08-21T06:19:46;11.30;;;4.35;;
72791;SDS011;60907;53.268;8.764;2023-08-21T06:22:11;9.90;;;4.63;;
72791;SDS011;60907;53.268;8.764;2023-08-21T06:24:36;14.70;;;5.43;;
72791;SDS011;60907;53.268;8.764;2023-08-21T06:27:02;14.48;;;4.25;;
72791;SDS011;60907;53.268;8.764;2023-08-21T06:29:27;9.60;;;4.10;;
72791;SDS011;60907;53.268;8.764;2023-08-21T06:31:53;11.20;;;3.92;;
72791;SDS011;60907;53.268;8.764;2023-08-21T06:34:18;8.53;;;4.07;;
72791;SDS011;60907;53.268;8.764;2023-08-21T06:36:43;13.30;;;4.10;;
72791;SDS011;60907;53.268;8.764;2023-08-21T06:39:09;13.73;;;3.93;;
72791;SDS011;60907;53.268;8.764;2023-08-21T06:41:34;11.93;;;4.07;;
72791;SDS011;60907;53.268;8.764;2023-08-21T06:44:00;11.23;;;4.20;;
72791;SDS011;60907;53.268;8.764;2023-08-21T06:46:25;6.47;;;3.28;;
72791;SDS011;60907;53.268;8.764;2023-08-21T06:48:51;8.70;;;3.22;;
72791;SDS011;60907;53.268;8.764;2023-08-21T06:51:16;14.55;;;3.97;;
72791;SDS011;60907;53.268;8.764;2023-08-21T06:53:42;10.23;;;3.28;;
72791;SDS011;60907;53.268;8.764;2023-08-21T06:56:07;7.70;;;3.55;;
72791;SDS011;60907;53.268;8.764;2023-08-21T06:58:33;11.98;;;3.80;;
72791;SDS011;60907;53.268;8.764;2023-08-21T07:00:59;11.63;;;3.83;;
72791;SDS011;60907;53.268;8.764;2023-08-21T07:03:25;8.35;;;3.80;;
72791;SDS011;60907;53.268;8.764;2023-08-21T07:05:57;8.73;;;3.13;;
72791;SDS011;60907;53.268;8.764;2023-08-21T07:08:23;11.15;;;3.38;;
72791;SDS011;60907;53.268;8.764;2023-08-21T07:10:49;7.18;;;2.70;;
72791;SDS011;60907;53.268;8.764;2023-08-21T07:13:15;8.35;;;2.53;;
72791;SDS011;60907;53.268;8.764;2023-08-21T07:15:40;9.65;;;2.88;;
72791;SDS011;60907;53.268;8.764;2023-08-21T07:18:06;8.52;;;3.00;;
72791;SDS011;60907;53.268;8.764;2023-08-21T07:20:32;7.03;;;2.35;;
72791;SDS011;60907;53.268;8.764;2023-08-21T07:22:58;11.90;;;2.85;;
72791;SDS011;60907;53.268;8.764;2023-08-21T07:25:23;4.50;;;2.10;;
72791;SDS011;60907;53.268;8.764;2023-08-21T07:27:50;6.18;;;1.98;;
72791;SDS011;60907;53.268;8.764;2023-08-21T07:30:18;5.90;;;1.92;;
72791;SDS011;60907;53.268;8.764;2023-08-21T07:32:43;7.18;;;2.67;;
72791;SDS011;60907;53.268;8.764;2023-08-21T07:35:09;7.32;;;2.03;;
72791;SDS011;60907;53.268;8.764;2023-08-21T07:37:35;4.40;;;1.40;;
72791;SDS011;60907;53.268;8.764;2023-08-21T07:40:01;7.28;;;1.80;;
72791;SDS011;60907;53.268;8.764;2023-08-21T07:42:27;5.82;;;1.90;;
72791;SDS011;60907;53.268;8.764;2023-08-21T07:44:52;5.95;;;1.80;;
72791;SDS011;60907;53.268;8.764;2023-08-21T07:47:18;3.85;;;1.65;;
72791;SDS011;60907;53.268;8.764;2023-08-21T07:49:44;5.82;;;1.50;;
72791;SDS011;60907;53.268;8.764;2023-08-21T07:52:10;5.80;;;1.17;;
72791;SDS011;60907;53.268;8.764;2023-08-21T07:54:35;4.10;;;1.52;;
72791;SDS011;60907;53.268;8.764;2023-08-21T07:57:00;2.30;;;0.90;;
72791;SDS011;60907;53.268;8.764;2023-08-21T07:59:27;2.55;;;1.00;;
72791;SDS011;60907;53.268;8.764;2023-08-21T08:01:52;5.00;;;1.40;;
72791;SDS011;60907;53.268;8.764;2023-08-21T08:04:18;4.45;;;0.95;;
72791;SDS011;60907;53.268;8.764;2023-08-21T08:06:45;3.13;;;1.08;;
72791;SDS011;60907;53.268;8.764;2023-08-21T08:09:10;3.30;;;0.68;;
72791;SDS011;60907;53.268;8.764;2023-08-21T08:11:35;3.33;;;0.70;;
72791;SDS011;60907;53.268;8.764;2023-08-21T08:14:01;3.28;;;1.00;;
72791;SDS011;60907;53.268;8.764;2023-08-21T08:16:26;6.30;;;0.90;;
72791;SDS011;60907;53.268;8.764;2023-08-21T08:18:51;3.60;;;0.77;;
72791;SDS011;60907;53.268;8.764;2023-08-21T08:21:17;2.20;;;0.70;;
72791;SDS011;60907;53.268;8.764;2023-08-21T08:23:42;4.43;;;0.85;;
72791;SDS011;60907;53.268;8.764;2023-08-21T08:26:08;1.55;;;0.50;;
72791;SDS011;60907;53.268;8.764;2023-08-21T08:28:34;3.45;;;1.02;;
72791;SDS011;60907;53.268;8.764;2023-08-21T08:31:00;4.00;;;0.70;;
72791;SDS011;60907;53.268;8.764;2023-08-21T08:33:25;1.92;;;0.55;;
72791;SDS011;60907;53.268;8.764;2023-08-21T08:35:51;3.55;;;0.80;;
72791;SDS011;60907;53.268;8.764;2023-08-21T08:38:17;4.93;;;0.60;;
72791;SDS011;60907;53.268;8.764;2023-08-21T08:40:45;3.00;;;0.90;;
72791;SDS011;60907;53.268;8.764;2023-08-21T08:43:11;3.42;;;0.77;;
72791;SDS011;60907;53.268;8.764;2023-08-21T08:45:38;3.17;;;1.10;;
72791;SDS011;60907;53.268;8.764;2023-08-21T08:48:05;1.83;;;0.52;;
72791;SDS011;60907;53.268;8.764;2023-08-21T08:50:32;0.93;;;0.55;;
72791;SDS011;60907;53.268;8.764;2023-08-21T08:52:58;2.53;;;0.55;;
72791;SDS011;60907;53.268;8.764;2023-08-21T08:55:24;3.15;;;0.50;;
72791;SDS011;60907;53.268;8.764;2023-08-21T08:57:50;2.95;;;0.60;;
72791;SDS011;60907;53.268;8.764;2023-08-21T09:00:17;2.40;;;0.65;;
72791;SDS011;60907;53.268;8.764;2023-08-21T09:02:42;3.92;;;0.98;;
72791;SDS011;60907;53.268;8.764;2023-08-21T09:05:08;2.60;;;0.70;;
72791;SDS011;60907;53.268;8.764;2023-08-21T09:07:35;5.40;;;0.70;;
72791;SDS011;60907;53.268;8.764;2023-08-21T09:10:01;1.92;;;0.60;;
72791;SDS011;60907;53.268;8.764;2023-08-21T09:12:26;2.72;;;0.82;;
72791;SDS011;60907;53.268;8.764;2023-08-21T09:14:52;2.67;;;0.60;;
72791;SDS011;60907;53.268;8.764;2023-08-21T09:17:17;4.78;;;0.60;;
72791;SDS011;60907;53.268;8.764;2023-08-21T09:19:43;0.38;;;0.32;;
72791;SDS011;60907;53.268;8.764;2023-08-21T09:22:10;4.20;;;0.75;;
72791;SDS011;60907;53.268;8.764;2023-08-21T09:27:44;2.67;;;0.55;;
72791;SDS011;60907;53.268;8.764;2023-08-21T09:30:10;2.45;;;0.60;;
72791;SDS011;60907;53.268;8.764;2023-08-21T09:32:52;2.92;;;0.90;;
72791;SDS011;60907;53.268;8.764;2023-08-21T09:35:17;2.42;;;0.82;;
72791;SDS011;60907;53.268;8.764;2023-08-21T09:37:44;1.27;;;0.70;;
72791;SDS011;60907;53.268;8.764;2023-08-21T09:40:11;1.38;;;0.50;;
72791;SDS011;60907;53.268;8.764;2023-08-21T09:42:38;3.42;;;0.57;;
72791;SDS011;60907;53.268;8.764;2023-08-21T09:45:04;2.90;;;0.70;;
72791;SDS011;60907;53.268;8.764;2023-08-21T09:47:30;1.88;;;0.63;;
72791;SDS011;60907;53.268;8.764;2023-08-21T09:49:56;2.72;;;0.70;;
72791;SDS011;60907;53.268;8.764;2023-08-21T09:52:22;1.55;;;0.60;;
72791;SDS011;60907;53.268;8.764;2023-08-21T09:54:48;2.70;;;0.68;;
72791;SDS011;60907;53.268;8.764;2023-08-21T09:57:13;1.92;;;0.50;;
72791;SDS011;60907;53.268;8.764;2023-08-21T09:59:39;1.63;;;0.40;;
72791;SDS011;60907;53.268;8.764;2023-08-21T10:02:06;3.88;;;0.60;;
72791;SDS011;60907;53.268;8.764;2023-08-21T10:04:32;2.13;;;0.50;;
72791;SDS011;60907;53.268;8.764;2023-08-21T10:07:00;2.10;;;0.60;;
72791;SDS011;60907;53.268;8.764;2023-08-21T10:09:26;2.05;;;0.55;;
72791;SDS011;60907;53.268;8.764;2023-08-21T10:11:53;1.77;;;0.57;;
72791;SDS011;60907;53.268;8.764;2023-08-21T10:14:24;3.50;;;0.82;;
72791;SDS011;60907;53.268;8.764;2023-08-21T10:16:51;1.95;;;0.50;;
72791;SDS011;60907;53.268;8.764;2023-08-21T10:21:42;1.77;;;0.60;;
72791;SDS011;60907;53.268;8.764;2023-08-21T10:24:11;3.20;;;1.02;;
72791;SDS011;60907;53.268;8.764;2023-08-21T10:26:40;2.85;;;0.85;;
72791;SDS011;60907;53.268;8.764;2023-08-21T10:29:05;2.40;;;0.60;;
72791;SDS011;60907;53.268;8.764;2023-08-21T10:34:02;2.17;;;0.82;;
72791;SDS011;60907;53.268;8.764;2023-08-21T10:41:54;4.05;;;0.70;;
72791;SDS011;60907;53.268;8.764;2023-08-21T10:47:30;4.10;;;0.57;;
72791;SDS011;60907;53.268;8.764;2023-08-21T10:50:03;2.92;;;0.60;;
72791;SDS011;60907;53.268;8.764;2023-08-21T10:52:31;2.13;;;0.60;;
72791;SDS011;60907;53.268;8.764;2023-08-21T10:55:03;2.05;;;0.70;;
72791;SDS011;60907;53.268;8.764;2023-08-21T10:57:29;2.17;;;0.60;;
72791;SDS011;60907;53.268;8.764;2023-08-21T10:59:57;5.65;;;0.98;;
72791;SDS011;60907;53.268;8.764;2023-08-21T11:02:23;4.05;;;0.77;;
72791;SDS011;60907;53.268;8.764;2023-08-21T11:04:50;6.32;;;1.20;;
72791;SDS011;60907;53.268;8.764;2023-08-21T11:07:16;3.55;;;0.73;;
72791;SDS011;60907;53.268;8.764;2023-08-21T11:09:44;4.07;;;0.80;;
72791;SDS011;60907;53.268;8.764;2023-08-21T11:12:11;2.30;;;0.90;;
72791;SDS011;60907;53.268;8.764;2023-08-21T11:14:38;1.30;;;0.60;;
72791;SDS011;60907;53.268;8.764;2023-08-21T11:17:04;4.43;;;0.98;;
72791;SDS011;60907;53.268;8.764;2023-08-21T11:19:31;2.45;;;0.73;;
72791;SDS011;60907;53.268;8.764;2023-08-21T11:22:04;3.35;;;0.75;;
72791;SDS011;60907;53.268;8.764;2023-08-21T11:24:41;2.08;;;0.55;;
72791;SDS011;60907;53.268;8.764;2023-08-21T11:27:14;2.65;;;1.38;;
72791;SDS011;60907;53.268;8.764;2023-08-21T11:29:50;2.60;;;0.77;;
72791;SDS011;60907;53.268;8.764;2023-08-21T11:32:18;2.42;;;0.60;;
72791;SDS011;60907;53.268;8.764;2023-08-21T11:34:52;2.42;;;0.80;;
72791;SDS011;60907;53.268;8.764;2023-08-21T11:37:21;1.38;;;0.80;;
72791;SDS011;60907;53.268;8.764;2023-08-21T11:39:48;2.13;;;0.82;;
72791;SDS011;60907;53.268;8.764;2023-08-21T11:42:16;2.55;;;0.68;;
72791;SDS011;60907;53.268;8.764;2023-08-21T11:44:46;2.78;;;1.08;;
72791;SDS011;60907;53.268;8.764;2023-08-21T11:47:13;2.85;;;0.70;;
72791;SDS011;60907;53.268;8.764;2023-08-21T11:49:40;3.05;;;1.00;;
72791;SDS011;60907;53.268;8.764;2023-08-21T11:52:07;1.55;;;0.60;;
72791;SDS011;60907;53.268;8.764;2023-08-21T11:54:34;2.03;;;0.98;;
72791;SDS011;60907;53.268;8.764;2023-08-21T11:57:03;2.13;;;0.63;;
72791;SDS011;60907;53.268;8.764;2023-08-21T11:59:30;2.15;;;0.68;;
72791;SDS011;60907;53.268;8.764;2023-08-21T12:01:55;2.53;;;0.57;;
72791;SDS011;60907;53.268;8.764;2023-08-21T12:04:21;2.80;;;0.73;;
72791;SDS011;60907;53.268;8.764;2023-08-21T12:06:46;3.13;;;0.80;;
72791;SDS011;60907;53.268;8.764;2023-08-21T12:09:12;2.13;;;0.95;;
72791;SDS011;60907;53.268;8.764;2023-08-21T12:11:37;2.67;;;0.73;;
72791;SDS011;60907;53.268;8.764;2023-08-21T12:14:03;2.13;;;0.80;;
72791;SDS011;60907;53.268;8.764;2023-08-21T12:16:29;1.63;;;0.50;;
72791;SDS011;60907;53.268;8.764;2023-08-21T12:18:55;3.40;;;0.60;;
72791;SDS011;60907;53.268;8.764;2023-08-21T12:21:22;1.83;;;0.70;;
72791;SDS011;60907;53.268;8.764;2023-08-21T12:23:48;1.92;;;1.10;;
72791;SDS011;60907;53.268;8.764;2023-08-21T12:26:14;2.65;;;0.82;;
72791;SDS011;60907;53.268;8.764;2023-08-21T12:28:45;2.53;;;0.50;;
72791;SDS011;60907;53.268;8.764;2023-08-21T12:31:14;1.60;;;0.73;;
72791;SDS011;60907;53.268;8.764;2023-08-21T12:33:39;1.52;;;0.70;;
72791;SDS011;60907;53.268;8.764;2023-08-21T12:36:05;1.58;;;0.43;;
72791;SDS011;60907;53.268;8.764;2023-08-21T12:38:30;1.77;;;0.82;;
72791;SDS011;60907;53.268;8.764;2023-08-21T12:43:22;2.93;;;0.90;;
72791;SDS011;60907;53.268;8.764;2023-08-21T12:45:48;1.33;;;1.05;;
72791;SDS011;60907;53.268;8.764;2023-08-21T12:48:13;0.93;;;0.60;;
72791;SDS011;60907;53.268;8.764;2023-08-21T12:50:39;2.45;;;0.90;;
72791;SDS011;60907;53.268;8.764;2023-08-21T12:53:05;3.30;;;0.63;;
72791;SDS011;60907;53.268;8.764;2023-08-21T12:55:30;2.60;;;0.70;;
72791;SDS011;60907;53.268;8.764;2023-08-21T12:57:56;2.65;;;0.90;;
72791;SDS011;60907;53.268;8.764;2023-08-21T13:00:22;3.50;;;0.82;;
72791;SDS011;60907;53.268;8.764;2023-08-21T13:02:47;2.58;;;0.70;;
72791;SDS011;60907;53.268;8.764;2023-08-21T13:05:14;2.22;;;0.70;;
72791;SDS011;60907;53.268;8.764;2023-08-21T13:07:40;2.30;;;0.70;;
72791;SDS011;60907;53.268;8.764;2023-08-21T13:10:09;1.52;;;0.60;;
72791;SDS011;60907;53.268;8.764;2023-08-21T13:12:35;3.50;;;0.80;;
72791;SDS011;60907;53.268;8.764;2023-08-21T13:15:01;1.77;;;0.60;;
72791;SDS011;60907;53.268;8.764;2023-08-21T13:19:53;1.23;;;0.60;;
72791;SDS011;60907;53.268;8.764;2023-08-21T13:22:18;1.90;;;0.85;;
72791;SDS011;60907;53.268;8.764;2023-08-21T13:24:43;2.40;;;0.93;;
72791;SDS011;60907;53.268;8.764;2023-08-21T13:27:09;2.97;;;0.80;;
72791;SDS011;60907;53.268;8.764;2023-08-21T13:29:35;6.00;;;0.90;;
72791;SDS011;60907;53.268;8.764;2023-08-21T13:32:00;4.78;;;0.82;;
72791;SDS011;60907;53.268;8.764;2023-08-21T13:34:26;2.28;;;0.60;;
72791;SDS011;60907;53.268;8.764;2023-08-21T13:36:51;3.80;;;0.82;;
72791;SDS011;60907;53.268;8.764;2023-08-21T13:39:17;2.58;;;0.88;;
72791;SDS011;60907;53.268;8.764;2023-08-21T13:41:42;1.70;;;0.82;;
72791;SDS011;60907;53.268;8.764;2023-08-21T13:44:08;2.13;;;0.80;;
72791;SDS011;60907;53.268;8.764;2023-08-21T13:46:34;2.80;;;0.70;;
72791;SDS011;60907;53.268;8.764;2023-08-21T13:48:59;2.08;;;0.88;;
72791;SDS011;60907;53.268;8.764;2023-08-21T13:51:25;2.83;;;0.98;;
72791;SDS011;60907;53.268;8.764;2023-08-21T13:53:50;1.65;;;1.00;;
72791;SDS011;60907;53.268;8.764;2023-08-21T13:56:16;2.90;;;0.63;;
72791;SDS011;60907;53.268;8.764;2023-08-21T13:58:41;2.03;;;0.65;;
72791;SDS011;60907;53.268;8.764;2023-08-21T14:01:07;1.60;;;0.82;;
72791;SDS011;60907;53.268;8.764;2023-08-21T14:03:33;3.40;;;0.82;;
72791;SDS011;60907;53.268;8.764;2023-08-21T14:05:59;2.08;;;0.73;;
72791;SDS011;60907;53.268;8.764;2023-08-21T14:08:24;4.05;;;1.17;;
72791;SDS011;60907;53.268;8.764;2023-08-21T14:10:50;0.90;;;0.50;;
72791;SDS011;60907;53.268;8.764;2023-08-21T14:13:15;3.30;;;0.63;;
72791;SDS011;60907;53.268;8.764;2023-08-21T14:15:40;3.08;;;0.70;;
72791;SDS011;60907;53.268;8.764;2023-08-21T14:18:06;2.92;;;0.70;;
72791;SDS011;60907;53.268;8.764;2023-08-21T14:20:31;1.10;;;0.60;;
72791;SDS011;60907;53.268;8.764;2023-08-21T14:22:57;1.67;;;0.75;;
72791;SDS011;60907;53.268;8.764;2023-08-21T14:25:22;1.63;;;0.70;;
72791;SDS011;60907;53.268;8.764;2023-08-21T14:27:48;1.17;;;0.77;;
72791;SDS011;60907;53.268;8.764;2023-08-21T14:30:16;2.35;;;0.50;;
72791;SDS011;60907;53.268;8.764;2023-08-21T14:32:42;1.48;;;0.63;;
72791;SDS011;60907;53.268;8.764;2023-08-21T14:35:07;1.42;;;0.60;;
72791;SDS011;60907;53.268;8.764;2023-08-21T14:37:33;3.22;;;0.80;;
72791;SDS011;60907;53.268;8.764;2023-08-21T14:39:59;1.98;;;0.60;;
72791;SDS011;60907;53.268;8.764;2023-08-21T14:42:24;3.38;;;0.70;;
72791;SDS011;60907;53.268;8.764;2023-08-21T14:44:50;2.50;;;0.73;;
72791;SDS011;60907;53.268;8.764;2023-08-21T14:47:15;1.63;;;0.77;;
72791;SDS011;60907;53.268;8.764;2023-08-21T14:49:40;1.60;;;0.70;;
72791;SDS011;60907;53.268;8.764;2023-08-21T14:52:06;3.05;;;1.25;;
72791;SDS011;60907;53.268;8.764;2023-08-21T14:54:33;2.10;;;0.80;;
72791;SDS011;60907;53.268;8.764;2023-08-21T14:56:59;3.05;;;0.70;;
72791;SDS011;60907;53.268;8.764;2023-08-21T14:59:25;2.67;;;0.70;;
72791;SDS011;60907;53.268;8.764;2023-08-21T15:01:50;1.83;;;0.70;;
72791;SDS011;60907;53.268;8.764;2023-08-21T15:04:15;2.63;;;0.60;;
72791;SDS011;60907;53.268;8.764;2023-08-21T15:06:41;2.65;;;0.90;;